• Join FlightAware (Why Join?)
  • Login
  • US Flag 
03:44PM EDT


 

Airport Tracker/Info


-or-


 

Live Flight TrackerFlight Track Log ✈ SAS617 ✈ 11-Jul-2013 ✈ EKCH / CPH - LSGG / GVA

Flight Track Log - Related Links

Times and Time Zones

All times are in EDT time to prevent confusion due to time zone crossing. See the SAS617 flight status page for this flight to view local times or setup timezone preferences in your user account.

Time Position Orientation Groundspeed Altitude Reporting Facility
EDT Latitude Longitude Course Direction KTS MPH feet Rate Location/Type
11:33AM 55.3185 12.3957 206° Southwest  Level Estimated
11:34AM 55.2186 12.3098 206° Southwest  Level Estimated
11:35AM 55.1186 12.2243 206° Southwest  Level Estimated
11:36AM 55.0186 12.1392 206° Southwest  Level Estimated
11:37AM 54.9185 12.0546 206° Southwest  Level Estimated
11:38AM 54.8183 11.9704 206° Southwest  Level Estimated
11:39AM 54.7181 11.8867 206° Southwest  Level Estimated
11:40AM 54.6178 11.8033 206° Southwest  Level Estimated
11:41AM 54.5175 11.7203 206° Southwest  Level Estimated
11:42AM 54.4171 11.6378 206° Southwest  Level Estimated
11:43AM 54.3167 11.5556 206° Southwest  Level Estimated
11:44AM 54.2162 11.4739 205° Southwest  Level Estimated
11:45AM 54.1156 11.3925 205° Southwest  Level Estimated
11:46AM 54.0150 11.3116 205° Southwest  Level Estimated
11:47AM 53.9143 11.2310 205° Southwest  Level Estimated
11:48AM 53.8136 11.1508 205° Southwest  Level Estimated
11:49AM 53.7129 11.0710 205° Southwest  Level Estimated
11:50AM 53.6120 10.9916 205° Southwest  Level Estimated
11:51AM 53.5112 10.9126 205° Southwest  Level Estimated
11:52AM 53.4102 10.8339 205° Southwest  Level Estimated
11:53AM 53.3093 10.7556 205° Southwest  Level Estimated
11:54AM 53.2082 10.6777 205° Southwest  Level Estimated
11:55AM 53.1072 10.6002 205° Southwest  Level Estimated
11:56AM 53.0060 10.5230 205° Southwest  Level Estimated
11:57AM 52.9048 10.4462 205° Southwest  Level Estimated
11:58AM 52.8036 10.3697 205° Southwest  Level Estimated
11:59AM 52.7023 10.2936 204° Southwest  Level Estimated
12:00PM 52.6010 10.2178 204° Southwest  Level Estimated
12:01PM 52.4996 10.1424 204° Southwest  Level Estimated
12:02PM 52.3982 10.0674 204° Southwest  Level Estimated
12:03PM 52.2967 9.9926 204° Southwest  Level Estimated
12:04PM 52.1952 9.9183 204° Southwest  Level Estimated
12:05PM 52.0937 9.8442 204° Southwest  Level Estimated
12:06PM 51.9921 9.7705 204° Southwest  Level Estimated
12:07PM 51.8904 9.6971 204° Southwest  Level Estimated
12:08PM 51.7887 9.6241 204° Southwest  Level Estimated
12:09PM 51.6870 9.5514 204° Southwest  Level Estimated
12:10PM 51.5852 9.4790 204° Southwest  Level Estimated
12:11PM 51.4833 9.4070 204° Southwest  Level Estimated
12:12PM 51.3815 9.3352 204° Southwest  Level Estimated
12:13PM 51.2795 9.2638 204° Southwest  Level Estimated
12:14PM 51.1776 9.1927 204° Southwest  Level Estimated
12:15PM 51.0756 9.1219 204° Southwest  Level Estimated
12:16PM 50.9735 9.0514 204° Southwest  Level Estimated
12:17PM 50.8714 8.9813 203° Southwest  Level Estimated
12:18PM 50.7693 8.9114 203° Southwest  Level Estimated
12:19PM 50.6671 8.8419 203° Southwest  Level Estimated
12:20PM 50.5649 8.7726 203° Southwest  Level Estimated
12:21PM 50.4626 8.7037 203° Southwest  Level Estimated
12:22PM 50.3603 8.6350 203° Southwest  Level Estimated
12:23PM 50.2580 8.5667 203° Southwest  Level Estimated
12:24PM 50.1556 8.4986 203° Southwest  Level Estimated
12:25PM 50.0532 8.4308 203° Southwest  Level Estimated
12:26PM 49.9507 8.3633 203° Southwest  Level Estimated
12:27PM 49.8482 8.2961 203° Southwest  Level Estimated
12:28PM 49.7457 8.2292 203° Southwest  Level Estimated
12:29PM 49.6431 8.1626 203° Southwest  Level Estimated
12:30PM 49.5405 8.0962 203° Southwest  Level Estimated
12:31PM 49.4379 8.0301 203° Southwest  Level Estimated
12:32PM 49.3352 7.9643 203° Southwest  Level Estimated
12:33PM 49.2325 7.8988 203° Southwest  Level Estimated
12:34PM 49.1297 7.8336 203° Southwest  Level Estimated
12:35PM 49.0269 7.7686 203° Southwest  Level Estimated
12:36PM 48.9241 7.7039 202° Southwest  Level Estimated
12:37PM 48.8212 7.6394 202° Southwest  Level Estimated
12:38PM 48.7111 7.5708 202° Southwest  Level Estimated
12:39PM 48.6010 7.5024 202° Southwest  Level Estimated
12:40PM 48.4908 7.4344 202° Southwest  Level Estimated
12:41PM 48.3806 7.3666 202° Southwest  Level Estimated
12:42PM 48.2704 7.2991 202° Southwest  Level Estimated
12:43PM 48.1601 7.2319 202° Southwest  Level Estimated
12:44PM 48.0498 7.1651 202° Southwest  Level Estimated
12:45PM 47.9394 7.0985 202° Southwest  Level Estimated
12:46PM 47.8290 7.0321 202° Southwest  Level Estimated
12:47PM 47.7186 6.9661 202° Southwest  Level Estimated
12:48PM 47.6081 6.9003 202° Southwest  Level Estimated
12:49PM 47.4976 6.8348 202° Southwest  Level Estimated
12:50PM 47.3870 6.7696 202° Southwest  Level Estimated
12:51PM 47.2764 6.7047 202° Southwest  Level Estimated
12:52PM 47.1658 6.6400 202° Southwest  Level Estimated
12:53PM 47.0551 6.5757 202° Southwest  Level Estimated
12:54PM 46.9444 6.5115 202° Southwest  Level Estimated
12:55PM 46.8337 6.4477 202° Southwest  Level Estimated
12:56PM 46.7229 6.3841 201° Southwest  Level Estimated
12:57PM 46.6121 6.3207 201° Southwest  Level Estimated
12:58PM 46.5013 6.2576 201° Southwest  Level Estimated
12:59PM 46.3904 6.1948 201° Southwest  Level Estimated
01:00PM 46.2795 6.1323 201° Southwest  Level Estimated
01:01PM 46.2381 6.1090 201° Southwest  Level Estimated
01:02PM 46.2381 6.1090 North  Level Estimated
01:03PM 46.2381 6.1090 North  Level Estimated
01:04PM 46.2381 6.1090 North  Level Estimated
01:05PM 46.2381 6.1090 North  Level Estimated
01:06PM 46.2381 6.1090 North  Level Estimated
01:07PM 46.2381 6.1090 North  Level Estimated
01:08PM 46.2381 6.1090 North  Level Estimated
01:09PM 46.2381 6.1090 North  Level Estimated
01:10PM 46.2381 6.1090 North  Level Estimated
01:11PM 46.2381 6.1090 North  Level Estimated
01:12PM 46.2381 6.1090 North  Level Estimated